sensor_id;sensor_type;location;lat;lon;timestamp;temperature;humidity
68177;DHT22;56478;50.982;7.032;2022-12-18T00:02:03;-3.57;78.88
68177;DHT22;56478;50.982;7.032;2022-12-18T00:04:29;-3.57;79.16
68177;DHT22;56478;50.982;7.032;2022-12-18T00:06:55;-3.53;78.79
68177;DHT22;56478;50.982;7.032;2022-12-18T00:09:20;-3.51;78.69
68177;DHT22;56478;50.982;7.032;2022-12-18T00:11:46;-3.48;78.47
68177;DHT22;56478;50.982;7.032;2022-12-18T00:14:12;-3.50;78.48
68177;DHT22;56478;50.982;7.032;2022-12-18T00:16:39;-3.44;78.28
68177;DHT22;56478;50.982;7.032;2022-12-18T00:19:05;-3.43;78.29
68177;DHT22;56478;50.982;7.032;2022-12-18T00:21:32;-3.43;78.62
68177;DHT22;56478;50.982;7.032;2022-12-18T00:23:59;-3.50;79.03
68177;DHT22;56478;50.982;7.032;2022-12-18T00:26:27;-3.40;78.38
68177;DHT22;56478;50.982;7.032;2022-12-18T00:28:54;-3.40;78.30
68177;DHT22;56478;50.982;7.032;2022-12-18T00:31:23;-3.40;77.81
68177;DHT22;56478;50.982;7.032;2022-12-18T00:33:49;-3.40;78.02
68177;DHT22;56478;50.982;7.032;2022-12-18T00:36:27;-3.36;77.69
68177;DHT22;56478;50.982;7.032;2022-12-18T00:38:54;-3.36;77.80
68177;DHT22;56478;50.982;7.032;2022-12-18T00:41:20;-3.30;77.32
68177;DHT22;56478;50.982;7.032;2022-12-18T00:44:18;-3.34;77.62
68177;DHT22;56478;50.982;7.032;2022-12-18T00:46:45;-3.37;77.75
68177;DHT22;56478;50.982;7.032;2022-12-18T00:49:11;-3.30;77.38
68177;DHT22;56478;50.982;7.032;2022-12-18T00:51:36;-3.32;77.33
68177;DHT22;56478;50.982;7.032;2022-12-18T00:54:03;-3.32;77.32
68177;DHT22;56478;50.982;7.032;2022-12-18T00:56:28;-3.33;77.14
68177;DHT22;56478;50.982;7.032;2022-12-18T00:58:54;-3.33;77.20
68177;DHT22;56478;50.982;7.032;2022-12-18T01:01:19;-3.32;77.19
68177;DHT22;56478;50.982;7.032;2022-12-18T01:03:45;-3.39;77.64
68177;DHT22;56478;50.982;7.032;2022-12-18T01:06:13;-3.43;77.73
68177;DHT22;56478;50.982;7.032;2022-12-18T01:08:39;-3.36;77.89
68177;DHT22;56478;50.982;7.032;2022-12-18T01:11:10;-3.32;77.63
68177;DHT22;56478;50.982;7.032;2022-12-18T01:13:35;-3.27;77.86
68177;DHT22;56478;50.982;7.032;2022-12-18T01:16:01;-3.27;77.21
68177;DHT22;56478;50.982;7.032;2022-12-18T01:18:27;-3.24;77.48
68177;DHT22;56478;50.982;7.032;2022-12-18T01:20:52;-3.33;77.40
68177;DHT22;56478;50.982;7.032;2022-12-18T01:23:18;-3.27;77.75
68177;DHT22;56478;50.982;7.032;2022-12-18T01:25:43;-3.27;77.54
68177;DHT22;56478;50.982;7.032;2022-12-18T01:28:09;-3.26;77.70
68177;DHT22;56478;50.982;7.032;2022-12-18T01:30:37;-3.26;77.61
68177;DHT22;56478;50.982;7.032;2022-12-18T01:33:04;-3.27;77.70
68177;DHT22;56478;50.982;7.032;2022-12-18T01:35:31;-3.36;77.44
68177;DHT22;56478;50.982;7.032;2022-12-18T01:37:56;-3.42;77.60
68177;DHT22;56478;50.982;7.032;2022-12-18T01:40:22;-3.47;78.01
68177;DHT22;56478;50.982;7.032;2022-12-18T01:42:52;-3.51;78.31
68177;DHT22;56478;50.982;7.032;2022-12-18T01:48:07;-3.62;78.47
68177;DHT22;56478;50.982;7.032;2022-12-18T01:50:39;-3.58;78.19
68177;DHT22;56478;50.982;7.032;2022-12-18T01:53:14;-3.65;78.17
68177;DHT22;56478;50.982;7.032;2022-12-18T01:55:45;-3.70;78.16
68177;DHT22;56478;50.982;7.032;2022-12-18T01:58:12;-3.68;78.39
68177;DHT22;56478;50.982;7.032;2022-12-18T02:00:37;-3.67;78.27
68177;DHT22;56478;50.982;7.032;2022-12-18T02:03:03;-3.68;78.49
68177;DHT22;56478;50.982;7.032;2022-12-18T02:13:13;-3.70;78.17
68177;DHT22;56478;50.982;7.032;2022-12-18T02:15:46;-3.75;78.18
68177;DHT22;56478;50.982;7.032;2022-12-18T02:18:30;-3.79;78.34
68177;DHT22;56478;50.982;7.032;2022-12-18T02:24:24;-3.68;77.76
68177;DHT22;56478;50.982;7.032;2022-12-18T02:26:56;-3.71;78.11
68177;DHT22;56478;50.982;7.032;2022-12-18T02:31:57;-3.86;78.20
68177;DHT22;56478;50.982;7.032;2022-12-18T02:34:28;-3.88;78.17
68177;DHT22;56478;50.982;7.032;2022-12-18T02:36:55;-3.96;78.40
68177;DHT22;56478;50.982;7.032;2022-12-18T02:39:23;-3.92;78.99
68177;DHT22;56478;50.982;7.032;2022-12-18T02:41:51;-3.89;78.93
68177;DHT22;56478;50.982;7.032;2022-12-18T02:44:17;-3.95;78.53
68177;DHT22;56478;50.982;7.032;2022-12-18T02:46:45;-3.92;78.80
68177;DHT22;56478;50.982;7.032;2022-12-18T02:51:56;-3.93;78.44
68177;DHT22;56478;50.982;7.032;2022-12-18T02:54:41;-3.98;78.76
68177;DHT22;56478;50.982;7.032;2022-12-18T03:00:11;-3.95;78.76
68177;DHT22;56478;50.982;7.032;2022-12-18T03:05:41;-3.98;78.63
68177;DHT22;56478;50.982;7.032;2022-12-18T03:08:14;-4.03;78.93
68177;DHT22;56478;50.982;7.032;2022-12-18T03:10:47;-3.92;78.59
68177;DHT22;56478;50.982;7.032;2022-12-18T03:13:27;-4.05;78.57
68177;DHT22;56478;50.982;7.032;2022-12-18T03:15:55;-3.99;78.34
68177;DHT22;56478;50.982;7.032;2022-12-18T03:18:30;-4.05;78.08
68177;DHT22;56478;50.982;7.032;2022-12-18T03:21:00;-4.03;78.53
68177;DHT22;56478;50.982;7.032;2022-12-18T03:23:35;-4.05;78.65
68177;DHT22;56478;50.982;7.032;2022-12-18T03:26:06;-4.10;78.77
68177;DHT22;56478;50.982;7.032;2022-12-18T03:28:36;-4.06;78.64
68177;DHT22;56478;50.982;7.032;2022-12-18T03:31:05;-4.06;79.02
68177;DHT22;56478;50.982;7.032;2022-12-18T03:36:02;-4.20;79.19
68177;DHT22;56478;50.982;7.032;2022-12-18T03:38:27;-4.13;79.15
68177;DHT22;56478;50.982;7.032;2022-12-18T03:41:01;-4.02;78.82
68177;DHT22;56478;50.982;7.032;2022-12-18T03:43:47;-4.09;78.72
68177;DHT22;56478;50.982;7.032;2022-12-18T03:46:39;-3.95;78.57
68177;DHT22;56478;50.982;7.032;2022-12-18T03:49:43;-3.93;78.44
68177;DHT22;56478;50.982;7.032;2022-12-18T03:54:42;-3.89;78.43
68177;DHT22;56478;50.982;7.032;2022-12-18T03:57:18;-3.98;78.45
68177;DHT22;56478;50.982;7.032;2022-12-18T03:59:46;-3.99;78.90
68177;DHT22;56478;50.982;7.032;2022-12-18T04:02:17;-3.96;78.82
68177;DHT22;56478;50.982;7.032;2022-12-18T04:04:43;-3.86;78.46
68177;DHT22;56478;50.982;7.032;2022-12-18T04:07:10;-3.85;78.39
68177;DHT22;56478;50.982;7.032;2022-12-18T04:09:38;-3.82;78.04
68177;DHT22;56478;50.982;7.032;2022-12-18T04:12:04;-3.90;78.17
68177;DHT22;56478;50.982;7.032;2022-12-18T04:14:29;-3.95;78.65
68177;DHT22;56478;50.982;7.032;2022-12-18T04:16:55;-3.92;78.77
68177;DHT22;56478;50.982;7.032;2022-12-18T04:19:20;-3.98;78.55
68177;DHT22;56478;50.982;7.032;2022-12-18T04:21:45;-4.00;78.73
68177;DHT22;56478;50.982;7.032;2022-12-18T04:24:11;-3.93;78.48
68177;DHT22;56478;50.982;7.032;2022-12-18T04:26:36;-4.02;78.70
68177;DHT22;56478;50.982;7.032;2022-12-18T04:29:03;-3.95;78.78
68177;DHT22;56478;50.982;7.032;2022-12-18T04:31:29;-4.00;79.00
68177;DHT22;56478;50.982;7.032;2022-12-18T04:33:54;-3.96;78.73
68177;DHT22;56478;50.982;7.032;2022-12-18T04:36:20;-3.93;78.78
68177;DHT22;56478;50.982;7.032;2022-12-18T04:38:45;-3.90;78.15
68177;DHT22;56478;50.982;7.032;2022-12-18T04:41:11;-4.00;78.50
68177;DHT22;56478;50.982;7.032;2022-12-18T04:43:36;-3.92;78.28
68177;DHT22;56478;50.982;7.032;2022-12-18T04:46:06;-3.98;78.93
68177;DHT22;56478;50.982;7.032;2022-12-18T04:48:32;-3.96;78.67
68177;DHT22;56478;50.982;7.032;2022-12-18T04:50:58;-3.99;78.54
68177;DHT22;56478;50.982;7.032;2022-12-18T04:53:24;-4.05;78.72
68177;DHT22;56478;50.982;7.032;2022-12-18T04:55:49;-4.02;78.85
68177;DHT22;56478;50.982;7.032;2022-12-18T04:58:15;-3.99;78.97
68177;DHT22;56478;50.982;7.032;2022-12-18T05:00:41;-4.00;78.77
68177;DHT22;56478;50.982;7.032;2022-12-18T05:03:06;-3.96;78.61
68177;DHT22;56478;50.982;7.032;2022-12-18T05:05:34;-3.96;78.39
68177;DHT22;56478;50.982;7.032;2022-12-18T05:08:00;-4.06;78.68
68177;DHT22;56478;50.982;7.032;2022-12-18T05:10:26;-4.03;78.87
68177;DHT22;56478;50.982;7.032;2022-12-18T05:12:51;-4.05;78.75
68177;DHT22;56478;50.982;7.032;2022-12-18T05:15:24;-4.07;78.69
68177;DHT22;56478;50.982;7.032;2022-12-18T05:17:51;-4.09;78.92
68177;DHT22;56478;50.982;7.032;2022-12-18T05:20:16;-4.11;78.86
68177;DHT22;56478;50.982;7.032;2022-12-18T05:22:43;-4.18;78.83
68177;DHT22;56478;50.982;7.032;2022-12-18T05:25:09;-4.24;79.16
68177;DHT22;56478;50.982;7.032;2022-12-18T05:27:34;-4.13;79.36
68177;DHT22;56478;50.982;7.032;2022-12-18T05:30:00;-4.18;78.85
68177;DHT22;56478;50.982;7.032;2022-12-18T05:32:25;-4.17;79.20
68177;DHT22;56478;50.982;7.032;2022-12-18T05:34:51;-4.14;79.13
68177;DHT22;56478;50.982;7.032;2022-12-18T05:37:16;-4.21;79.26
68177;DHT22;56478;50.982;7.032;2022-12-18T05:39:43;-4.25;79.32
68177;DHT22;56478;50.982;7.032;2022-12-18T05:42:08;-4.11;79.35
68177;DHT22;56478;50.982;7.032;2022-12-18T05:44:34;-4.11;78.92
68177;DHT22;56478;50.982;7.032;2022-12-18T05:46:59;-4.14;78.95
68177;DHT22;56478;50.982;7.032;2022-12-18T05:49:25;-4.11;79.06
68177;DHT22;56478;50.982;7.032;2022-12-18T05:51:50;-4.14;78.97
68177;DHT22;56478;50.982;7.032;2022-12-18T05:54:16;-4.14;78.98
68177;DHT22;56478;50.982;7.032;2022-12-18T05:56:41;-4.07;78.97
68177;DHT22;56478;50.982;7.032;2022-12-18T05:59:07;-4.13;78.74
68177;DHT22;56478;50.982;7.032;2022-12-18T06:01:33;-4.11;78.65
68177;DHT22;56478;50.982;7.032;2022-12-18T06:03:58;-4.14;78.85
68177;DHT22;56478;50.982;7.032;2022-12-18T06:06:26;-4.07;78.54
68177;DHT22;56478;50.982;7.032;2022-12-18T06:08:52;-4.13;78.50
68177;DHT22;56478;50.982;7.032;2022-12-18T06:11:19;-4.16;78.70
68177;DHT22;56478;50.982;7.032;2022-12-18T06:13:50;-4.17;78.76
68177;DHT22;56478;50.982;7.032;2022-12-18T06:16:15;-4.18;78.86
68177;DHT22;56478;50.982;7.032;2022-12-18T06:18:41;-4.28;79.62
68177;DHT22;56478;50.982;7.032;2022-12-18T06:21:06;-4.10;79.32
68177;DHT22;56478;50.982;7.032;2022-12-18T06:23:32;-4.02;79.23
68177;DHT22;56478;50.982;7.032;2022-12-18T06:25:58;-4.07;78.64
68177;DHT22;56478;50.982;7.032;2022-12-18T06:28:23;-4.10;78.87
68177;DHT22;56478;50.982;7.032;2022-12-18T06:30:49;-4.02;78.83
68177;DHT22;56478;50.982;7.032;2022-12-18T06:33:16;-4.10;78.53
68177;DHT22;56478;50.982;7.032;2022-12-18T06:35:41;-4.13;78.66
68177;DHT22;56478;50.982;7.032;2022-12-18T06:38:07;-4.16;78.78
68177;DHT22;56478;50.982;7.032;2022-12-18T06:40:33;-4.11;78.91
68177;DHT22;56478;50.982;7.032;2022-12-18T06:42:58;-4.10;78.87
68177;DHT22;56478;50.982;7.032;2022-12-18T06:45:24;-4.20;79.19
68177;DHT22;56478;50.982;7.032;2022-12-18T06:47:50;-4.16;78.70
68177;DHT22;56478;50.982;7.032;2022-12-18T06:50:15;-4.27;79.17
68177;DHT22;56478;50.982;7.032;2022-12-18T06:52:41;-4.30;79.03
68177;DHT22;56478;50.982;7.032;2022-12-18T06:55:10;-4.18;79.16
68177;DHT22;56478;50.982;7.032;2022-12-18T06:57:36;-4.07;78.70
68177;DHT22;56478;50.982;7.032;2022-12-18T07:00:04;-4.11;78.66
68177;DHT22;56478;50.982;7.032;2022-12-18T07:02:30;-4.14;78.89
68177;DHT22;56478;50.982;7.032;2022-12-18T07:04:58;-4.27;78.98
68177;DHT22;56478;50.982;7.032;2022-12-18T07:07:27;-4.27;79.06
68177;DHT22;56478;50.982;7.032;2022-12-18T07:09:52;-4.16;79.22
68177;DHT22;56478;50.982;7.032;2022-12-18T07:12:18;-4.24;78.95
68177;DHT22;56478;50.982;7.032;2022-12-18T07:14:45;-4.30;78.82
68177;DHT22;56478;50.982;7.032;2022-12-18T07:17:10;-4.37;79.63
68177;DHT22;56478;50.982;7.032;2022-12-18T07:19:36;-4.30;79.47
68177;DHT22;56478;50.982;7.032;2022-12-18T07:22:02;-4.23;79.13
68177;DHT22;56478;50.982;7.032;2022-12-18T07:24:27;-4.28;79.27
68177;DHT22;56478;50.982;7.032;2022-12-18T07:26:53;-4.25;79.40
68177;DHT22;56478;50.982;7.032;2022-12-18T07:29:19;-4.24;78.94
68177;DHT22;56478;50.982;7.032;2022-12-18T07:31:44;-4.51;79.24
68177;DHT22;56478;50.982;7.032;2022-12-18T07:34:14;-4.50;80.01
68177;DHT22;56478;50.982;7.032;2022-12-18T07:36:40;-4.38;79.37
68177;DHT22;56478;50.982;7.032;2022-12-18T07:39:06;-4.37;79.43
68177;DHT22;56478;50.982;7.032;2022-12-18T07:41:32;-4.33;79.42
68177;DHT22;56478;50.982;7.032;2022-12-18T07:43:57;-4.33;79.32
68177;DHT22;56478;50.982;7.032;2022-12-18T07:46:26;-4.25;79.23
68177;DHT22;56478;50.982;7.032;2022-12-18T07:48:51;-4.21;79.29
68177;DHT22;56478;50.982;7.032;2022-12-18T07:51:18;-4.24;79.34
68177;DHT22;56478;50.982;7.032;2022-12-18T07:53:44;-4.17;78.89
68177;DHT22;56478;50.982;7.032;2022-12-18T07:56:11;-4.14;78.96
68177;DHT22;56478;50.982;7.032;2022-12-18T07:58:37;-4.05;78.83
68177;DHT22;56478;50.982;7.032;2022-12-18T08:01:08;-3.98;78.48
68177;DHT22;56478;50.982;7.032;2022-12-18T08:03:37;-3.90;78.09
68177;DHT22;56478;50.982;7.032;2022-12-18T08:06:05;-3.67;77.45
68177;DHT22;56478;50.982;7.032;2022-12-18T08:08:32;-3.37;76.57
68177;DHT22;56478;50.982;7.032;2022-12-18T08:10:58;-3.03;75.35
68177;DHT22;56478;50.982;7.032;2022-12-18T08:13:24;-2.73;73.97
68177;DHT22;56478;50.982;7.032;2022-12-18T08:16:18;-2.52;73.43
68177;DHT22;56478;50.982;7.032;2022-12-18T08:18:44;-1.90;71.00
68177;DHT22;56478;50.982;7.032;2022-12-18T08:21:23;-2.25;71.00
68177;DHT22;56478;50.982;7.032;2022-12-18T08:23:49;-1.95;71.24
68177;DHT22;56478;50.982;7.032;2022-12-18T08:26:15;-2.09;71.67
68177;DHT22;56478;50.982;7.032;2022-12-18T08:28:42;-2.01;70.89
68177;DHT22;56478;50.982;7.032;2022-12-18T08:31:08;-2.42;71.98
68177;DHT22;56478;50.982;7.032;2022-12-18T08:33:34;-2.05;71.88
68177;DHT22;56478;50.982;7.032;2022-12-18T08:36:01;-1.50;69.75
68177;DHT22;56478;50.982;7.032;2022-12-18T08:38:27;-1.67;70.62
68177;DHT22;56478;50.982;7.032;2022-12-18T08:41:06;-1.43;69.93
68177;DHT22;56478;50.982;7.032;2022-12-18T08:43:33;-1.42;69.82
68177;DHT22;56478;50.982;7.032;2022-12-18T08:46:18;-1.55;70.55
68177;DHT22;56478;50.982;7.032;2022-12-18T08:48:44;-1.49;70.63
68177;DHT22;56478;50.982;7.032;2022-12-18T08:51:10;-1.55;71.37
68177;DHT22;56478;50.982;7.032;2022-12-18T08:53:36;-1.55;71.22
68177;DHT22;56478;50.982;7.032;2022-12-18T08:56:02;-1.50;71.04
68177;DHT22;56478;50.982;7.032;2022-12-18T08:58:28;-1.38;70.07
68177;DHT22;56478;50.982;7.032;2022-12-18T09:00:54;-1.62;71.55
68177;DHT22;56478;50.982;7.032;2022-12-18T09:03:20;-1.63;71.92
68177;DHT22;56478;50.982;7.032;2022-12-18T09:05:48;-1.59;71.60
68177;DHT22;56478;50.982;7.032;2022-12-18T09:08:13;-1.38;71.31
68177;DHT22;56478;50.982;7.032;2022-12-18T09:10:43;-1.35;70.90
68177;DHT22;56478;50.982;7.032;2022-12-18T09:13:10;-1.55;71.74
68177;DHT22;56478;50.982;7.032;2022-12-18T09:15:50;-1.28;70.77
68177;DHT22;56478;50.982;7.032;2022-12-18T09:18:18;-1.07;70.01
68177;DHT22;56478;50.982;7.032;2022-12-18T09:20:44;-1.11;70.09
68177;DHT22;56478;50.982;7.032;2022-12-18T09:23:10;-0.77;69.91
68177;DHT22;56478;50.982;7.032;2022-12-18T09:25:36;-0.24;67.98
68177;DHT22;56478;50.982;7.032;2022-12-18T09:28:10;0.11;66.99
68177;DHT22;56478;50.982;7.032;2022-12-18T09:30:40;0.75;64.67
68177;DHT22;56478;50.982;7.032;2022-12-18T09:33:06;1.21;63.01
68177;DHT22;56478;50.982;7.032;2022-12-18T09:35:32;1.23;62.69
68177;DHT22;56478;50.982;7.032;2022-12-18T09:37:57;1.46;62.22
68177;DHT22;56478;50.982;7.032;2022-12-18T09:40:26;1.14;63.13
68177;DHT22;56478;50.982;7.032;2022-12-18T09:42:57;1.28;62.47
68177;DHT22;56478;50.982;7.032;2022-12-18T09:45:24;1.00;62.87
68177;DHT22;56478;50.982;7.032;2022-12-18T09:47:51;0.69;64.66
68177;DHT22;56478;50.982;7.032;2022-12-18T09:50:26;0.40;65.44
68177;DHT22;56478;50.982;7.032;2022-12-18T09:52:56;0.45;65.77
68177;DHT22;56478;50.982;7.032;2022-12-18T09:55:33;0.58;64.71
68177;DHT22;56478;50.982;7.032;2022-12-18T09:58:10;0.83;64.36
68177;DHT22;56478;50.982;7.032;2022-12-18T10:00:38;0.79;64.35
68177;DHT22;56478;50.982;7.032;2022-12-18T10:03:14;0.73;65.27
68177;DHT22;56478;50.982;7.032;2022-12-18T10:05:46;0.52;64.78
68177;DHT22;56478;50.982;7.032;2022-12-18T10:08:37;0.84;64.15
68177;DHT22;56478;50.982;7.032;2022-12-18T10:14:14;0.96;62.73
68177;DHT22;56478;50.982;7.032;2022-12-18T10:17:46;0.86;64.22
68177;DHT22;56478;50.982;7.032;2022-12-18T10:27:48;1.03;63.03
68177;DHT22;56478;50.982;7.032;2022-12-18T10:30:17;0.98;63.71
68177;DHT22;56478;50.982;7.032;2022-12-18T10:32:43;1.03;63.31
68177;DHT22;56478;50.982;7.032;2022-12-18T10:35:18;0.93;63.08
68177;DHT22;56478;50.982;7.032;2022-12-18T10:38:26;1.03;63.12
68177;DHT22;56478;50.982;7.032;2022-12-18T10:43:34;1.03;63.18
68177;DHT22;56478;50.982;7.032;2022-12-18T10:48:40;0.96;63.25
68177;DHT22;56478;50.982;7.032;2022-12-18T10:51:07;0.96;63.10
68177;DHT22;56478;50.982;7.032;2022-12-18T10:53:35;0.84;63.32
68177;DHT22;56478;50.982;7.032;2022-12-18T10:56:03;1.00;63.59
68177;DHT22;56478;50.982;7.032;2022-12-18T10:58:32;0.96;63.20
68177;DHT22;56478;50.982;7.032;2022-12-18T11:01:18;0.94;63.35
68177;DHT22;56478;50.982;7.032;2022-12-18T11:06:23;1.05;62.68
68177;DHT22;56478;50.982;7.032;2022-12-18T11:09:26;1.01;63.14
68177;DHT22;56478;50.982;7.032;2022-12-18T11:11:57;1.00;63.66
68177;DHT22;56478;50.982;7.032;2022-12-18T11:14:28;1.17;62.49
68177;DHT22;56478;50.982;7.032;2022-12-18T11:16:55;1.11;62.17
68177;DHT22;56478;50.982;7.032;2022-12-18T11:19:38;0.90;62.49
68177;DHT22;56478;50.982;7.032;2022-12-18T11:22:30;0.87;63.05
68177;DHT22;56478;50.982;7.032;2022-12-18T11:27:22;0.81;63.65
68177;DHT22;56478;50.982;7.032;2022-12-18T11:29:49;0.84;63.56
68177;DHT22;56478;50.982;7.032;2022-12-18T11:32:32;0.97;63.35
68177;DHT22;56478;50.982;7.032;2022-12-18T11:35:20;1.01;63.18
68177;DHT22;56478;50.982;7.032;2022-12-18T11:38:06;0.87;63.47
68177;DHT22;56478;50.982;7.032;2022-12-18T11:40:37;0.93;63.84
68177;DHT22;56478;50.982;7.032;2022-12-18T11:43:21;0.91;63.91
68177;DHT22;56478;50.982;7.032;2022-12-18T11:46:11;0.77;63.83
68177;DHT22;56478;50.982;7.032;2022-12-18T11:48:54;0.59;64.40
68177;DHT22;56478;50.982;7.032;2022-12-18T11:51:33;0.58;64.52
68177;DHT22;56478;50.982;7.032;2022-12-18T11:54:01;0.65;64.54
68177;DHT22;56478;50.982;7.032;2022-12-18T11:56:30;0.54;64.65
68177;DHT22;56478;50.982;7.032;2022-12-18T12:04:32;0.32;65.94
68177;DHT22;56478;50.982;7.032;2022-12-18T12:07:20;0.48;65.72
68177;DHT22;56478;50.982;7.032;2022-12-18T12:12:39;0.58;65.58
68177;DHT22;56478;50.982;7.032;2022-12-18T12:27:35;0.32;66.31
68177;DHT22;56478;50.982;7.032;2022-12-18T12:35:10;0.20;66.61
68177;DHT22;56478;50.982;7.032;2022-12-18T12:37:58;0.21;66.79
68177;DHT22;56478;50.982;7.032;2022-12-18T12:40:30;0.17;67.03
68177;DHT22;56478;50.982;7.032;2022-12-18T12:43:19;0.18;67.34
68177;DHT22;56478;50.982;7.032;2022-12-18T12:48:46;0.15;66.70
68177;DHT22;56478;50.982;7.032;2022-12-18T12:51:37;0.06;67.18
68177;DHT22;56478;50.982;7.032;2022-12-18T12:54:09;0.09;67.30
68177;DHT22;56478;50.982;7.032;2022-12-18T12:56:57;0.06;67.14
68177;DHT22;56478;50.982;7.032;2022-12-18T13:02:00;0.04;67.44
68177;DHT22;56478;50.982;7.032;2022-12-18T13:07:12;0.01;67.30
68177;DHT22;56478;50.982;7.032;2022-12-18T13:10:12;-0.08;67.30
68177;DHT22;56478;50.982;7.032;2022-12-18T13:23:29;-0.03;67.65
68177;DHT22;56478;50.982;7.032;2022-12-18T13:26:00;-0.11;67.54
68177;DHT22;56478;50.982;7.032;2022-12-18T13:34:25;-0.22;68.13
68177;DHT22;56478;50.982;7.032;2022-12-18T13:36:54;-0.17;67.91
68177;DHT22;56478;50.982;7.032;2022-12-18T13:39:23;-0.27;68.23
68177;DHT22;56478;50.982;7.032;2022-12-18T13:41:54;-0.19;67.76
68177;DHT22;56478;50.982;7.032;2022-12-18T13:44:58;-0.24;67.94
68177;DHT22;56478;50.982;7.032;2022-12-18T13:47:31;-0.14;67.76
68177;DHT22;56478;50.982;7.032;2022-12-18T13:49:58;-0.08;67.39
68177;DHT22;56478;50.982;7.032;2022-12-18T13:52:26;-0.15;67.44
68177;DHT22;56478;50.982;7.032;2022-12-18T13:55:04;-0.27;67.67
68177;DHT22;56478;50.982;7.032;2022-12-18T13:57:36;-0.27;67.98
68177;DHT22;56478;50.982;7.032;2022-12-18T14:00:26;-0.18;67.87
68177;DHT22;56478;50.982;7.032;2022-12-18T14:02:54;-0.14;67.59
68177;DHT22;56478;50.982;7.032;2022-12-18T14:05:29;-0.15;67.46
68177;DHT22;56478;50.982;7.032;2022-12-18T14:08:04;-0.19;67.49
68177;DHT22;56478;50.982;7.032;2022-12-18T14:10:30;-0.29;67.74
68177;DHT22;56478;50.982;7.032;2022-12-18T14:12:57;-0.31;68.21
68177;DHT22;56478;50.982;7.032;2022-12-18T14:18:01;-0.36;67.93
68177;DHT22;56478;50.982;7.032;2022-12-18T14:20:28;-0.38;68.20
68177;DHT22;56478;50.982;7.032;2022-12-18T14:22:55;-0.36;68.23
68177;DHT22;56478;50.982;7.032;2022-12-18T14:25:23;-0.34;68.17
68177;DHT22;56478;50.982;7.032;2022-12-18T14:30:38;-0.36;68.38
68177;DHT22;56478;50.982;7.032;2022-12-18T14:33:12;-0.34;68.31
68177;DHT22;56478;50.982;7.032;2022-12-18T14:35:43;-0.36;67.90
68177;DHT22;56478;50.982;7.032;2022-12-18T14:41:04;-0.45;68.07
68177;DHT22;56478;50.982;7.032;2022-12-18T14:43:38;-0.39;68.17
68177;DHT22;56478;50.982;7.032;2022-12-18T14:46:06;-0.45;68.48
68177;DHT22;56478;50.982;7.032;2022-12-18T14:48:51;-0.39;68.14
68177;DHT22;56478;50.982;7.032;2022-12-18T14:51:24;-0.42;68.08
68177;DHT22;56478;50.982;7.032;2022-12-18T14:53:58;-0.46;68.35
68177;DHT22;56478;50.982;7.032;2022-12-18T14:56:34;-0.48;68.26
68177;DHT22;56478;50.982;7.032;2022-12-18T14:59:14;-0.49;68.17
68177;DHT22;56478;50.982;7.032;2022-12-18T15:04:39;-0.48;68.10
68177;DHT22;56478;50.982;7.032;2022-12-18T15:09:38;-0.51;68.16
68177;DHT22;56478;50.982;7.032;2022-12-18T15:12:04;-0.53;68.19
68177;DHT22;56478;50.982;7.032;2022-12-18T15:16:56;-0.52;68.33
68177;DHT22;56478;50.982;7.032;2022-12-18T15:19:34;-0.53;68.35
68177;DHT22;56478;50.982;7.032;2022-12-18T15:22:00;-0.56;68.49
68177;DHT22;56478;50.982;7.032;2022-12-18T15:24:31;-0.60;68.63
68177;DHT22;56478;50.982;7.032;2022-12-18T15:26:58;-0.59;68.56
68177;DHT22;56478;50.982;7.032;2022-12-18T15:29:24;-0.59;68.42
68177;DHT22;56478;50.982;7.032;2022-12-18T15:32:05;-0.63;68.71
68177;DHT22;56478;50.982;7.032;2022-12-18T15:34:32;-0.63;69.01
68177;DHT22;56478;50.982;7.032;2022-12-18T15:36:59;-0.62;68.79
68177;DHT22;56478;50.982;7.032;2022-12-18T15:39:25;-0.66;69.15
68177;DHT22;56478;50.982;7.032;2022-12-18T15:41:54;-0.65;69.34
68177;DHT22;56478;50.982;7.032;2022-12-18T15:44:38;-0.56;68.91
68177;DHT22;56478;50.982;7.032;2022-12-18T15:47:09;-0.66;69.13
68177;DHT22;56478;50.982;7.032;2022-12-18T15:49:35;-0.70;69.42
68177;DHT22;56478;50.982;7.032;2022-12-18T15:52:01;-0.69;69.79
68177;DHT22;56478;50.982;7.032;2022-12-18T15:54:27;-0.68;69.81
68177;DHT22;56478;50.982;7.032;2022-12-18T15:57:11;-0.72;69.96
68177;DHT22;56478;50.982;7.032;2022-12-18T15:59:54;-0.74;70.11
68177;DHT22;56478;50.982;7.032;2022-12-18T16:02:21;-0.76;70.35
68177;DHT22;56478;50.982;7.032;2022-12-18T16:04:48;-0.84;70.69
68177;DHT22;56478;50.982;7.032;2022-12-18T16:07:17;-0.83;70.84
68177;DHT22;56478;50.982;7.032;2022-12-18T16:09:43;-0.86;70.97
68177;DHT22;56478;50.982;7.032;2022-12-18T16:12:18;-0.86;71.22
68177;DHT22;56478;50.982;7.032;2022-12-18T16:14:45;-0.84;71.21
68177;DHT22;56478;50.982;7.032;2022-12-18T16:17:11;-0.87;71.38
68177;DHT22;56478;50.982;7.032;2022-12-18T16:19:37;-0.91;71.67
68177;DHT22;56478;50.982;7.032;2022-12-18T16:22:03;-0.97;71.69
68177;DHT22;56478;50.982;7.032;2022-12-18T16:24:31;-0.94;71.71
68177;DHT22;56478;50.982;7.032;2022-12-18T16:26:58;-1.03;72.30
68177;DHT22;56478;50.982;7.032;2022-12-18T16:29:25;-0.98;72.17
68177;DHT22;56478;50.982;7.032;2022-12-18T16:31:58;-1.07;72.39
68177;DHT22;56478;50.982;7.032;2022-12-18T16:34:29;-1.04;72.64
68177;DHT22;56478;50.982;7.032;2022-12-18T16:36:58;-1.05;72.38
68177;DHT22;56478;50.982;7.032;2022-12-18T16:39:25;-0.98;72.59
68177;DHT22;56478;50.982;7.032;2022-12-18T16:41:51;-1.03;72.53
68177;DHT22;56478;50.982;7.032;2022-12-18T16:44:17;-1.05;72.57
68177;DHT22;56478;50.982;7.032;2022-12-18T16:46:43;-1.04;72.56
68177;DHT22;56478;50.982;7.032;2022-12-18T16:49:14;-1.03;72.60
68177;DHT22;56478;50.982;7.032;2022-12-18T16:51:40;-1.01;72.68
68177;DHT22;56478;50.982;7.032;2022-12-18T16:54:06;-1.11;72.99
68177;DHT22;56478;50.982;7.032;2022-12-18T16:56:32;-1.08;72.88
68177;DHT22;56478;50.982;7.032;2022-12-18T16:58:59;-1.11;72.89
68177;DHT22;56478;50.982;7.032;2022-12-18T17:01:27;-1.12;72.92
68177;DHT22;56478;50.982;7.032;2022-12-18T17:04:04;-1.09;72.73
68177;DHT22;56478;50.982;7.032;2022-12-18T17:06:32;-1.14;72.77
68177;DHT22;56478;50.982;7.032;2022-12-18T17:09:00;-1.21;73.08
68177;DHT22;56478;50.982;7.032;2022-12-18T17:11:28;-1.19;73.08
68177;DHT22;56478;50.982;7.032;2022-12-18T17:13:54;-1.24;73.25
68177;DHT22;56478;50.982;7.032;2022-12-18T17:16:21;-1.22;73.30
68177;DHT22;56478;50.982;7.032;2022-12-18T17:18:47;-1.21;73.22
68177;DHT22;56478;50.982;7.032;2022-12-18T17:21:13;-1.27;73.44
68177;DHT22;56478;50.982;7.032;2022-12-18T17:23:40;-1.24;73.29
68177;DHT22;56478;50.982;7.032;2022-12-18T17:26:05;-1.18;73.36
68177;DHT22;56478;50.982;7.032;2022-12-18T17:28:33;-1.16;73.29
68177;DHT22;56478;50.982;7.032;2022-12-18T17:30:59;-1.11;72.85
68177;DHT22;56478;50.982;7.032;2022-12-18T17:33:25;-1.18;73.52
68177;DHT22;56478;50.982;7.032;2022-12-18T17:35:51;-1.15;73.17
68177;DHT22;56478;50.982;7.032;2022-12-18T17:38:17;-1.15;73.03
68177;DHT22;56478;50.982;7.032;2022-12-18T17:40:43;-1.11;73.10
68177;DHT22;56478;50.982;7.032;2022-12-18T17:43:10;-1.12;73.16
68177;DHT22;56478;50.982;7.032;2022-12-18T17:45:37;-1.24;73.62
68177;DHT22;56478;50.982;7.032;2022-12-18T17:48:04;-1.18;73.50